createdAt,value
2023-01-04T00:01:20.180Z,13.00
2023-01-04T00:03:47.840Z,6.78
2023-01-04T00:06:16.594Z,12.45
2023-01-04T00:08:43.655Z,6.25
2023-01-04T00:11:15.127Z,8.38
2023-01-04T00:13:42.418Z,7.15
2023-01-04T00:16:13.754Z,9.25
2023-01-04T00:18:41.713Z,7.93
2023-01-04T00:21:20.097Z,5.75
2023-01-04T00:23:49.350Z,9.45
2023-01-04T00:26:19.370Z,8.43
2023-01-04T00:28:53.745Z,7.50
2023-01-04T00:31:21.479Z,6.97
2023-01-04T00:33:48.971Z,5.80
2023-01-04T00:36:16.589Z,6.68
2023-01-04T00:38:43.671Z,5.60
2023-01-04T00:41:28.236Z,5.35
2023-01-04T00:44:00.046Z,5.07
2023-01-04T00:46:27.334Z,7.10
2023-01-04T00:49:00.094Z,4.63
2023-01-04T00:51:31.882Z,4.15
2023-01-04T00:54:03.729Z,6.07
2023-01-04T00:56:37.568Z,4.35
2023-01-04T00:59:05.436Z,4.47
2023-01-04T01:01:35.129Z,4.18
2023-01-04T01:04:04.311Z,2.85
2023-01-04T01:06:33.090Z,2.95
2023-01-04T01:09:01.249Z,3.38
2023-01-04T01:11:29.209Z,2.80
2023-01-04T01:13:57.627Z,3.97
2023-01-04T01:16:52.847Z,4.00
2023-01-04T01:19:15.010Z,6.57
2023-01-04T01:21:42.520Z,5.30
2023-01-04T01:24:16.370Z,5.63
2023-01-04T01:26:43.469Z,5.90
2023-01-04T01:29:10.782Z,8.35
2023-01-04T01:31:38.208Z,10.27
2023-01-04T01:34:05.254Z,7.97
2023-01-04T01:36:32.428Z,7.03
2023-01-04T01:38:59.549Z,6.22
2023-01-04T01:41:29.152Z,6.68
2023-01-04T01:44:00.580Z,10.13
2023-01-04T01:46:33.953Z,11.63
2023-01-04T01:49:05.982Z,7.45
2023-01-04T01:51:33.468Z,9.75
2023-01-04T01:54:08.286Z,9.27
2023-01-04T01:56:37.451Z,11.10
2023-01-04T01:59:05.406Z,7.20
2023-01-04T02:01:32.944Z,9.15
2023-01-04T02:04:01.154Z,9.25
2023-01-04T02:06:31.592Z,8.70
2023-01-04T02:08:58.944Z,7.70
2023-01-04T02:11:26.570Z,10.02
2023-01-04T02:14:12.639Z,8.57
2023-01-04T02:16:50.751Z,8.40
2023-01-04T02:19:55.285Z,10.70
2023-01-04T02:22:54.066Z,8.75
2023-01-04T02:25:57.625Z,8.65
2023-01-04T02:28:43.026Z,10.35
2023-01-04T02:31:28.921Z,13.00
2023-01-04T02:34:38.696Z,10.07
2023-01-04T02:37:13.779Z,11.63
2023-01-04T02:39:53.555Z,13.43
2023-01-04T02:42:49.224Z,13.88
2023-01-04T02:45:18.947Z,10.65
2023-01-04T02:48:04.578Z,10.20
2023-01-04T02:50:31.745Z,10.15
2023-01-04T02:53:03.780Z,8.70
2023-01-04T02:56:17.250Z,7.40
2023-01-04T02:59:03.729Z,8.70
2023-01-04T03:02:49.819Z,5.88
2023-01-04T03:05:50.718Z,7.40
2023-01-04T03:08:34.258Z,5.32
2023-01-04T03:11:33.795Z,6.22
2023-01-04T03:14:30.918Z,5.75
2023-01-04T03:16:55.060Z,5.95
2023-01-04T03:19:42.298Z,6.38
2023-01-04T03:22:31.309Z,5.68
2023-01-04T03:25:17.496Z,5.30
2023-01-04T03:28:04.287Z,5.25
2023-01-04T03:30:50.699Z,7.78
2023-01-04T03:33:37.130Z,8.57
2023-01-04T03:36:13.731Z,7.97
2023-01-04T03:39:10.224Z,5.65
2023-01-04T03:42:08.790Z,7.35
2023-01-04T03:45:15.761Z,7.93
2023-01-04T03:48:30.899Z,6.28
2023-01-04T03:51:08.750Z,9.43
2023-01-04T03:53:44.399Z,9.75
2023-01-04T03:56:12.102Z,7.95
2023-01-04T03:58:39.220Z,6.15
2023-01-04T04:01:06.676Z,8.13
2023-01-04T04:03:51.862Z,7.30
2023-01-04T04:06:37.312Z,7.50
2023-01-04T04:09:04.487Z,6.90
2023-01-04T04:11:31.800Z,8.00
2023-01-04T04:14:00.028Z,11.15
2023-01-04T04:16:27.444Z,11.07
2023-01-04T04:18:54.765Z,9.30
2023-01-04T04:21:22.011Z,8.07
2023-01-04T04:23:48.900Z,9.32
2023-01-04T04:26:15.998Z,11.85
2023-01-04T04:28:43.621Z,8.52
2023-01-04T04:31:10.328Z,11.65
2023-01-04T04:33:37.087Z,10.60
2023-01-04T04:36:04.020Z,11.98
2023-01-04T04:38:30.672Z,7.95
2023-01-04T04:41:16.123Z,5.93
2023-01-04T04:43:42.958Z,14.15
2023-01-04T04:46:09.748Z,10.52
2023-01-04T04:48:36.603Z,9.63
2023-01-04T04:51:03.346Z,8.80
2023-01-04T04:53:30.011Z,10.15
2023-01-04T04:55:56.918Z,9.63
2023-01-04T04:58:23.633Z,11.60
2023-01-04T05:00:50.456Z,6.78
2023-01-04T05:03:17.342Z,7.68
2023-01-04T05:05:44.221Z,9.50
2023-01-04T05:08:11.016Z,5.00
2023-01-04T05:10:38.877Z,3.97
2023-01-04T05:13:07.489Z,5.47
2023-01-04T05:15:36.308Z,5.07
2023-01-04T05:18:05.009Z,3.35
2023-01-04T05:20:31.709Z,3.95
2023-01-04T05:22:58.578Z,4.47
2023-01-04T05:25:25.570Z,3.60
2023-01-04T05:27:52.517Z,6.82
2023-01-04T05:30:38.247Z,4.25
2023-01-04T05:33:05.924Z,4.93
2023-01-04T05:35:32.769Z,5.20
2023-01-04T05:37:59.723Z,4.13
2023-01-04T05:40:26.801Z,4.57
2023-01-04T05:42:53.517Z,5.10
2023-01-04T05:45:21.240Z,6.10
2023-01-04T05:47:54.751Z,5.60
2023-01-04T05:50:23.426Z,4.35
2023-01-04T05:52:50.767Z,5.07
2023-01-04T05:55:17.606Z,5.43
2023-01-04T05:57:44.520Z,6.47
2023-01-04T06:00:12.342Z,4.47
2023-01-04T06:02:40.822Z,5.93
2023-01-04T06:05:08.411Z,5.63
2023-01-04T06:07:35.579Z,7.28
2023-01-04T06:10:02.422Z,5.38
2023-01-04T06:12:29.178Z,3.42
2023-01-04T06:14:55.961Z,6.75
2023-01-04T06:17:22.637Z,9.98
2023-01-04T06:19:49.448Z,10.27
2023-01-04T06:22:16.185Z,5.95
2023-01-04T06:24:43.129Z,7.30
2023-01-04T06:27:09.809Z,5.03
2023-01-04T06:29:36.740Z,4.75
2023-01-04T06:32:03.554Z,8.40
2023-01-04T06:34:31.358Z,6.38
2023-01-04T06:36:58.881Z,14.85
2023-01-04T06:39:25.695Z,8.23
2023-01-04T06:41:52.661Z,4.90
2023-01-04T06:44:19.337Z,11.77
2023-01-04T06:46:46.023Z,5.88
2023-01-04T06:49:14.481Z,6.10
2023-01-04T06:51:41.247Z,4.55
2023-01-04T06:54:11.775Z,7.07
2023-01-04T06:56:39.230Z,6.63
2023-01-04T06:59:06.558Z,8.82
2023-01-04T07:01:33.574Z,10.40
2023-01-04T07:04:00.404Z,10.38
2023-01-04T07:06:27.298Z,12.68
2023-01-04T07:08:55.547Z,12.35
2023-01-04T07:11:22.514Z,13.55
2023-01-04T07:13:49.248Z,13.48
2023-01-04T07:16:16.211Z,14.13
2023-01-04T07:18:42.989Z,15.50
2023-01-04T07:21:09.740Z,11.48
2023-01-04T07:23:36.462Z,12.63
2023-01-04T07:26:03.675Z,11.68
2023-01-04T07:28:59.865Z,10.55
2023-01-04T07:31:26.842Z,9.93
2023-01-04T07:33:53.605Z,11.85
2023-01-04T07:36:20.641Z,10.63
2023-01-04T07:38:47.385Z,11.93
2023-01-04T07:41:14.321Z,11.13
2023-01-04T07:43:41.108Z,6.55
2023-01-04T07:46:07.831Z,7.95
2023-01-04T07:48:34.897Z,10.43
2023-01-04T07:51:01.665Z,11.10
2023-01-04T07:53:28.698Z,6.70
2023-01-04T07:55:57.426Z,4.35
2023-01-04T07:58:25.339Z,10.38
2023-01-04T08:00:52.352Z,8.32
2023-01-04T08:03:19.408Z,8.88
2023-01-04T08:05:46.950Z,4.57
2023-01-04T08:08:13.845Z,6.45
2023-01-04T08:10:40.734Z,7.05
2023-01-04T08:13:07.455Z,5.22
2023-01-04T08:15:34.482Z,7.30
2023-01-04T08:18:01.755Z,10.20
2023-01-04T08:20:28.716Z,14.32
2023-01-04T08:22:55.766Z,13.32
2023-01-04T08:25:22.827Z,10.82
2023-01-04T08:27:49.882Z,12.43
2023-01-04T08:30:17.225Z,14.32
2023-01-04T08:32:44.234Z,11.30
2023-01-04T08:35:11.234Z,9.45
2023-01-04T08:37:38.196Z,10.88
2023-01-04T08:40:05.612Z,14.68
2023-01-04T08:42:32.987Z,16.48
2023-01-04T08:45:01.949Z,16.35
2023-01-04T08:47:30.542Z,15.50
2023-01-04T08:49:57.758Z,17.90
2023-01-04T08:52:24.872Z,16.52
2023-01-04T08:54:51.925Z,15.88
2023-01-04T08:57:19.725Z,21.25
2023-01-04T08:59:47.253Z,14.40
2023-01-04T09:02:23.635Z,11.68
2023-01-04T09:04:51.216Z,21.90
2023-01-04T09:07:18.818Z,15.10
2023-01-04T09:09:45.834Z,13.02
2023-01-04T09:12:12.940Z,19.10
2023-01-04T09:14:39.853Z,12.90
2023-01-04T09:17:06.935Z,12.25
2023-01-04T09:19:33.969Z,16.45
2023-01-04T09:22:01.517Z,23.83
2023-01-04T09:24:28.615Z,20.77
2023-01-04T09:26:55.747Z,23.45
2023-01-04T09:29:22.625Z,25.30
2023-01-04T09:31:49.732Z,17.35
2023-01-04T09:34:17.945Z,18.10
2023-01-04T09:36:46.647Z,19.25
2023-01-04T09:39:21.821Z,19.23
2023-01-04T09:42:00.819Z,19.38
2023-01-04T09:47:33.321Z,21.67
2023-01-04T09:50:07.420Z,27.52
2023-01-04T09:52:41.205Z,15.63
2023-01-04T09:55:37.461Z,25.83
2023-01-04T09:58:05.896Z,21.58
2023-01-04T10:00:43.993Z,28.52
2023-01-04T10:03:21.513Z,22.42
2023-01-04T10:05:49.117Z,22.58
2023-01-04T10:08:18.241Z,16.67
2023-01-04T10:10:52.626Z,26.83
2023-01-04T10:13:41.875Z,20.98
2023-01-04T10:16:17.665Z,23.10
2023-01-04T10:19:51.069Z,15.18
2023-01-04T10:22:01.270Z,15.90
2023-01-04T10:24:59.956Z,13.50
2023-01-04T10:27:50.019Z,15.05
2023-01-04T10:30:30.019Z,20.25
2023-01-04T10:33:13.143Z,12.65
2023-01-04T10:35:43.790Z,10.60
2023-01-04T10:38:17.572Z,23.52
2023-01-04T10:40:47.566Z,18.23
2023-01-04T10:44:11.942Z,23.65
2023-01-04T10:46:29.356Z,21.95
2023-01-04T10:49:08.451Z,12.82
2023-01-04T10:51:48.657Z,9.07
2023-01-04T10:54:21.512Z,9.18
2023-01-04T10:57:06.668Z,13.50
2023-01-04T10:59:49.939Z,10.65
2023-01-04T11:02:27.477Z,5.80
2023-01-04T11:05:07.915Z,12.45
2023-01-04T11:07:40.695Z,11.27
2023-01-04T11:10:12.655Z,8.82
2023-01-04T11:12:39.724Z,6.07
2023-01-04T11:15:07.309Z,6.50
2023-01-04T11:17:35.782Z,10.75
2023-01-04T11:20:02.984Z,8.60
2023-01-04T11:22:36.908Z,11.65
2023-01-04T11:28:03.240Z,9.38
2023-01-04T11:30:35.552Z,11.50
2023-01-04T11:33:11.215Z,12.43
2023-01-04T11:35:51.008Z,11.80
2023-01-04T11:38:20.805Z,9.57
2023-01-04T11:41:16.053Z,13.98
2023-01-04T11:44:06.456Z,14.38
2023-01-04T11:46:34.773Z,13.15
2023-01-04T11:49:01.997Z,16.30
2023-01-04T11:51:29.072Z,18.27
2023-01-04T11:53:59.859Z,13.60
2023-01-04T11:56:29.976Z,12.48
2023-01-04T11:59:09.069Z,12.93
2023-01-04T12:01:39.693Z,11.80
2023-01-04T12:04:11.960Z,8.45
2023-01-04T12:06:42.060Z,18.42
2023-01-04T12:09:17.985Z,11.90
2023-01-04T12:11:51.496Z,12.10
2023-01-04T12:14:27.571Z,8.35
2023-01-04T12:17:00.675Z,20.52
2023-01-04T12:19:28.415Z,9.27
2023-01-04T12:21:58.019Z,11.30
2023-01-04T12:24:31.551Z,15.45
2023-01-04T12:26:59.126Z,18.58
2023-01-04T12:29:32.917Z,11.90
2023-01-04T12:32:12.177Z,16.45
2023-01-04T12:34:44.575Z,13.10
2023-01-04T12:37:48.747Z,14.18
2023-01-04T12:40:45.443Z,13.68
2023-01-04T12:43:16.107Z,10.35
2023-01-04T12:45:48.679Z,10.63
2023-01-04T12:48:47.529Z,23.40
2023-01-04T12:51:42.680Z,11.07
2023-01-04T12:54:24.304Z,10.07
2023-01-04T12:57:11.886Z,10.77
2023-01-04T12:59:40.446Z,12.00
2023-01-04T13:02:36.637Z,17.23
2023-01-04T13:08:13.889Z,15.55
2023-01-04T13:10:47.296Z,15.50
2023-01-04T13:13:33.493Z,15.80
2023-01-04T13:16:00.362Z,21.30
2023-01-04T13:18:50.862Z,12.02
2023-01-04T13:21:28.453Z,11.20
2023-01-04T13:24:19.969Z,15.98
2023-01-04T13:29:28.810Z,11.60
2023-01-04T13:31:59.296Z,12.85
2023-01-04T13:34:55.745Z,14.45
2023-01-04T13:37:32.349Z,10.48
2023-01-04T13:40:28.155Z,16.77
2023-01-04T13:43:39.785Z,10.15
2023-01-04T13:46:22.789Z,14.52
2023-01-04T13:48:52.866Z,18.27
2023-01-04T13:51:24.164Z,14.77
2023-01-04T13:53:59.298Z,12.23
2023-01-04T13:56:29.187Z,16.83
2023-01-04T13:58:56.326Z,15.20
2023-01-04T14:01:34.911Z,17.05
2023-01-04T14:06:42.266Z,17.38
2023-01-04T14:09:09.826Z,12.27
2023-01-04T14:12:05.823Z,19.88
2023-01-04T14:14:50.800Z,11.27
2023-01-04T14:17:17.905Z,12.63
2023-01-04T14:19:58.518Z,22.73
2023-01-04T14:22:42.207Z,15.18
2023-01-04T14:25:30.979Z,12.30
2023-01-04T14:28:17.443Z,15.35
2023-01-04T14:30:56.192Z,17.75
2023-01-04T14:33:32.939Z,14.32
2023-01-04T14:36:29.263Z,17.65
2023-01-04T14:39:06.674Z,11.32
2023-01-04T14:41:43.547Z,13.90
2023-01-04T14:44:16.566Z,16.23
2023-01-04T14:46:47.251Z,18.70
2023-01-04T14:49:14.847Z,17.98
2023-01-04T14:51:44.891Z,16.63
2023-01-04T14:54:22.248Z,9.68
2023-01-04T14:56:52.460Z,14.07
2023-01-04T14:59:19.647Z,13.82
2023-01-04T15:01:47.138Z,17.88
2023-01-04T15:04:14.486Z,21.15
2023-01-04T15:06:59.348Z,15.18
2023-01-04T15:09:27.200Z,15.43
2023-01-04T15:11:54.165Z,15.50
2023-01-04T15:14:21.480Z,10.38
2023-01-04T15:16:48.609Z,19.08
2023-01-04T15:19:15.812Z,18.67
2023-01-04T15:21:42.815Z,16.52
2023-01-04T15:24:10.716Z,43.83
2023-01-04T15:26:39.234Z,17.48
2023-01-04T15:29:07.085Z,17.02
2023-01-04T15:31:38.865Z,16.75
2023-01-04T15:34:07.512Z,11.02
2023-01-04T15:36:38.761Z,15.50
2023-01-04T15:39:08.003Z,15.15
2023-01-04T15:41:53.837Z,13.50
2023-01-04T15:44:21.031Z,14.57
2023-01-04T15:46:48.415Z,20.45
2023-01-04T15:49:17.932Z,17.77
2023-01-04T15:51:46.672Z,19.27
2023-01-04T15:54:14.128Z,16.85
2023-01-04T15:56:41.238Z,14.32
2023-01-04T15:59:08.346Z,21.90
2023-01-04T16:01:35.524Z,13.80
2023-01-04T16:04:03.538Z,20.15
2023-01-04T16:06:30.538Z,21.83
2023-01-04T16:08:59.509Z,20.33
2023-01-04T16:11:26.710Z,21.38
2023-01-04T16:13:54.508Z,20.10
2023-01-04T16:16:24.597Z,18.23
2023-01-04T16:18:53.914Z,18.25
2023-01-04T16:21:27.103Z,15.90
2023-01-04T16:24:03.904Z,18.08
2023-01-04T16:26:35.214Z,16.52
2023-01-04T16:29:03.598Z,21.27
2023-01-04T16:31:35.503Z,20.42
2023-01-04T16:34:02.939Z,24.42
2023-01-04T16:36:30.772Z,30.58
2023-01-04T16:38:58.409Z,16.05
2023-01-04T16:41:25.948Z,16.23
2023-01-04T16:43:56.132Z,19.80
2023-01-04T16:46:25.474Z,19.75
2023-01-04T16:48:55.678Z,22.85
2023-01-04T16:51:24.804Z,22.85
2023-01-04T16:53:53.657Z,20.20
2023-01-04T16:56:22.746Z,18.67
2023-01-04T16:58:51.311Z,21.42
2023-01-04T17:01:28.407Z,18.45
2023-01-04T17:03:58.169Z,26.70
2023-01-04T17:06:27.257Z,28.70
2023-01-04T17:08:55.509Z,19.33
2023-01-04T17:12:11.548Z,16.40
2023-01-04T17:14:14.926Z,14.00
2023-01-04T17:16:42.703Z,16.33
2023-01-04T17:19:10.079Z,25.88
2023-01-04T17:21:37.096Z,20.10
2023-01-04T17:24:04.453Z,19.58
2023-01-04T17:26:32.680Z,17.00
2023-01-04T17:29:01.322Z,15.40
2023-01-04T17:31:34.400Z,25.60
2023-01-04T17:34:01.905Z,24.77
2023-01-04T17:36:29.159Z,16.08
2023-01-04T17:38:56.546Z,22.75
2023-01-04T17:41:25.497Z,24.80
2023-01-04T17:43:57.531Z,27.55
2023-01-04T17:46:25.681Z,27.88
2023-01-04T17:49:17.991Z,22.35
2023-01-04T17:51:40.275Z,23.58
2023-01-04T17:54:08.682Z,20.98
2023-01-04T17:56:38.160Z,29.15
2023-01-04T17:59:09.305Z,22.20
2023-01-04T18:01:37.069Z,21.52
2023-01-04T18:04:05.013Z,43.00
2023-01-04T18:06:35.065Z,30.98
2023-01-04T18:09:06.640Z,36.60
2023-01-04T18:11:35.192Z,39.40
2023-01-04T18:14:06.025Z,31.63
2023-01-04T18:16:57.430Z,35.08
2023-01-04T18:19:27.382Z,28.55
2023-01-04T18:21:55.297Z,22.98
2023-01-04T18:24:35.972Z,25.35
2023-01-04T18:27:22.709Z,36.75
2023-01-04T18:29:53.454Z,26.40
2023-01-04T18:32:21.750Z,24.02
2023-01-04T18:34:49.455Z,33.25
2023-01-04T18:37:19.210Z,32.13
2023-01-04T18:39:48.330Z,29.20
2023-01-04T18:42:16.414Z,30.60
2023-01-04T18:44:48.534Z,29.33
2023-01-04T18:47:21.569Z,29.05
2023-01-04T18:49:52.163Z,33.30
2023-01-04T18:52:20.516Z,26.63
2023-01-04T18:54:49.187Z,25.00
2023-01-04T18:57:17.239Z,37.92
2023-01-04T18:59:50.474Z,26.55
2023-01-04T19:02:21.071Z,31.23
2023-01-04T19:04:49.488Z,34.63
2023-01-04T19:07:18.011Z,27.20
2023-01-04T19:09:46.686Z,30.77
2023-01-04T19:12:14.897Z,20.42
2023-01-04T19:14:42.834Z,26.50
2023-01-04T19:17:11.405Z,21.45
2023-01-04T19:19:39.365Z,28.27
2023-01-04T19:22:07.772Z,21.73
2023-01-04T19:24:35.890Z,22.38
2023-01-04T19:27:06.164Z,23.63
2023-01-04T19:29:35.164Z,32.10
2023-01-04T19:32:03.643Z,20.92
2023-01-04T19:34:31.564Z,28.63
2023-01-04T19:36:59.950Z,24.40
2023-01-04T19:39:28.305Z,26.60
2023-01-04T19:41:56.965Z,27.40
2023-01-04T19:44:25.390Z,23.88
2023-01-04T19:46:53.899Z,26.38
2023-01-04T19:49:23.007Z,23.88
2023-01-04T19:51:53.124Z,19.75
2023-01-04T19:54:25.408Z,24.83
2023-01-04T19:56:54.872Z,29.20
2023-01-04T19:59:23.808Z,37.25
2023-01-04T20:01:53.086Z,32.45
2023-01-04T20:04:21.961Z,36.80
2023-01-04T20:06:50.519Z,33.15
2023-01-04T20:09:25.304Z,26.60
2023-01-04T20:11:55.444Z,30.45
2023-01-04T20:14:24.920Z,26.30
2023-01-04T20:16:54.092Z,40.58
2023-01-04T20:19:22.979Z,28.60
2023-01-04T20:21:51.949Z,40.60
2023-01-04T20:24:20.970Z,30.83
2023-01-04T20:26:50.211Z,37.15
2023-01-04T20:29:18.911Z,32.65
2023-01-04T20:31:47.685Z,32.72
2023-01-04T20:34:16.287Z,36.83
2023-01-04T20:36:45.143Z,28.10
2023-01-04T20:39:14.356Z,36.10
2023-01-04T20:42:03.150Z,31.33
2023-01-04T20:44:31.790Z,27.15
2023-01-04T20:47:00.849Z,26.90
2023-01-04T20:49:29.699Z,29.77
2023-01-04T20:51:58.527Z,29.25
2023-01-04T20:54:28.008Z,28.70
2023-01-04T20:56:56.645Z,37.08
2023-01-04T20:59:25.955Z,30.60
2023-01-04T21:01:54.920Z,32.70
2023-01-04T21:04:24.028Z,24.17
2023-01-04T21:06:52.861Z,28.00
2023-01-04T21:09:21.548Z,33.00
2023-01-04T21:11:50.247Z,30.88
2023-01-04T21:14:19.887Z,27.73
2023-01-04T21:16:50.103Z,27.50
2023-01-04T21:19:22.125Z,34.67
2023-01-04T21:21:50.773Z,26.38
2023-01-04T21:24:19.795Z,22.73
2023-01-04T21:26:48.459Z,28.52
2023-01-04T21:29:17.107Z,19.55
2023-01-04T21:31:46.188Z,27.45
2023-01-04T21:34:18.265Z,31.33
2023-01-04T21:36:50.036Z,29.00
2023-01-04T21:39:18.248Z,28.70
2023-01-04T21:41:48.325Z,29.88
2023-01-04T21:44:16.968Z,30.98
2023-01-04T21:46:45.729Z,38.72
2023-01-04T21:49:14.131Z,35.45
2023-01-04T21:51:42.339Z,31.52
2023-01-04T21:54:10.428Z,30.95
2023-01-04T21:56:38.419Z,33.50
2023-01-04T21:59:06.185Z,22.40
2023-01-04T22:01:35.404Z,23.13
2023-01-04T22:04:03.847Z,31.00
2023-01-04T22:06:33.347Z,31.13
2023-01-04T22:09:00.524Z,28.45
2023-01-04T22:11:27.688Z,39.17
2023-01-04T22:13:55.907Z,33.47
2023-01-04T22:16:24.592Z,25.23
2023-01-04T22:18:52.062Z,38.72
2023-01-04T22:21:23.941Z,29.45
2023-01-04T22:23:51.837Z,27.63
2023-01-04T22:26:18.828Z,25.50
2023-01-04T22:28:46.073Z,35.33
2023-01-04T22:31:14.166Z,33.28
2023-01-04T22:33:41.904Z,29.73
2023-01-04T22:36:19.044Z,29.75
2023-01-04T22:38:49.062Z,30.48
2023-01-04T22:41:17.126Z,26.27
2023-01-04T22:43:44.879Z,29.30
2023-01-04T22:46:17.773Z,33.65
2023-01-04T22:48:45.756Z,21.42
2023-01-04T22:51:14.845Z,30.02
2023-01-04T22:53:41.917Z,30.05
2023-01-04T22:56:20.918Z,32.55
2023-01-04T22:58:53.353Z,25.63
2023-01-04T23:01:28.601Z,36.20
2023-01-04T23:03:56.127Z,37.75
2023-01-04T23:06:24.991Z,32.83
2023-01-04T23:09:01.231Z,26.20
2023-01-04T23:11:29.915Z,25.95
2023-01-04T23:13:57.808Z,29.80
2023-01-04T23:16:32.032Z,25.15
2023-01-04T23:19:01.152Z,28.50
2023-01-04T23:21:28.585Z,34.67
2023-01-04T23:23:55.694Z,31.65
2023-01-04T23:26:24.679Z,27.90
2023-01-04T23:28:52.114Z,33.70
2023-01-04T23:31:21.726Z,25.55
2023-01-04T23:33:53.022Z,31.27
2023-01-04T23:36:29.009Z,33.28
2023-01-04T23:38:58.680Z,31.77
2023-01-04T23:41:45.150Z,26.35
2023-01-04T23:44:26.871Z,28.05
2023-01-04T23:46:55.894Z,26.48
2023-01-04T23:49:23.873Z,27.75
2023-01-04T23:51:51.253Z,24.92
2023-01-04T23:54:18.576Z,26.67
2023-01-04T23:56:45.739Z,28.48
2023-01-04T23:59:12.918Z,25.95
